sensor_id;sensor_type;location;lat;lon;timestamp;temperature;humidity
11122;DHT22;5615;49.304;10.576;2023-03-16T00:01:02;-2.70;99.90
11122;DHT22;5615;49.304;10.576;2023-03-16T00:03:30;-2.80;99.90
11122;DHT22;5615;49.304;10.576;2023-03-16T00:05:57;-2.90;99.90
11122;DHT22;5615;49.304;10.576;2023-03-16T00:08:23;-2.90;99.90
11122;DHT22;5615;49.304;10.576;2023-03-16T00:10:51;-2.90;99.90
11122;DHT22;5615;49.304;10.576;2023-03-16T00:13:20;-2.90;99.90
11122;DHT22;5615;49.304;10.576;2023-03-16T00:15:49;-2.80;99.90
11122;DHT22;5615;49.304;10.576;2023-03-16T00:18:16;-2.80;99.90
11122;DHT22;5615;49.304;10.576;2023-03-16T00:20:49;-2.80;99.90
11122;DHT22;5615;49.304;10.576;2023-03-16T00:23:16;-2.90;99.90
11122;DHT22;5615;49.304;10.576;2023-03-16T00:25:42;-3.00;99.90
11122;DHT22;5615;49.304;10.576;2023-03-16T00:28:09;-2.80;99.90
11122;DHT22;5615;49.304;10.576;2023-03-16T00:30:38;-2.70;99.90
11122;DHT22;5615;49.304;10.576;2023-03-16T00:33:05;-2.80;99.90
11122;DHT22;5615;49.304;10.576;2023-03-16T00:35:31;-2.60;99.90
11122;DHT22;5615;49.304;10.576;2023-03-16T00:38:00;-2.60;99.90
11122;DHT22;5615;49.304;10.576;2023-03-16T00:40:26;-2.60;99.90
11122;DHT22;5615;49.304;10.576;2023-03-16T00:42:54;-2.60;99.90
11122;DHT22;5615;49.304;10.576;2023-03-16T00:45:21;-2.60;99.90
11122;DHT22;5615;49.304;10.576;2023-03-16T00:47:48;-2.60;99.90
11122;DHT22;5615;49.304;10.576;2023-03-16T00:50:18;-2.60;99.90
11122;DHT22;5615;49.304;10.576;2023-03-16T00:52:46;-2.50;99.90
11122;DHT22;5615;49.304;10.576;2023-03-16T00:55:14;-2.50;99.90
11122;DHT22;5615;49.304;10.576;2023-03-16T00:57:41;-2.30;99.90
11122;DHT22;5615;49.304;10.576;2023-03-16T01:00:09;-2.20;99.90
11122;DHT22;5615;49.304;10.576;2023-03-16T01:02:39;-2.20;99.90
11122;DHT22;5615;49.304;10.576;2023-03-16T01:05:07;-2.20;99.90
11122;DHT22;5615;49.304;10.576;2023-03-16T01:07:34;-2.10;99.90
11122;DHT22;5615;49.304;10.576;2023-03-16T01:10:01;-2.20;99.90
11122;DHT22;5615;49.304;10.576;2023-03-16T01:12:29;-2.20;99.90
11122;DHT22;5615;49.304;10.576;2023-03-16T01:14:56;-2.10;99.90
11122;DHT22;5615;49.304;10.576;2023-03-16T01:17:22;-2.10;99.90
11122;DHT22;5615;49.304;10.576;2023-03-16T01:19:49;-2.10;99.90
11122;DHT22;5615;49.304;10.576;2023-03-16T01:22:16;-2.10;99.90
11122;DHT22;5615;49.304;10.576;2023-03-16T01:24:44;-2.00;99.90
11122;DHT22;5615;49.304;10.576;2023-03-16T01:27:12;-2.00;99.90
11122;DHT22;5615;49.304;10.576;2023-03-16T01:29:40;-2.00;99.90
11122;DHT22;5615;49.304;10.576;2023-03-16T01:32:08;-1.90;99.90
11122;DHT22;5615;49.304;10.576;2023-03-16T01:34:34;-1.90;99.90
11122;DHT22;5615;49.304;10.576;2023-03-16T01:37:02;-2.00;99.90
11122;DHT22;5615;49.304;10.576;2023-03-16T01:39:29;-1.90;99.90
11122;DHT22;5615;49.304;10.576;2023-03-16T01:41:55;-1.90;99.90
11122;DHT22;5615;49.304;10.576;2023-03-16T01:44:24;-1.90;99.90
11122;DHT22;5615;49.304;10.576;2023-03-16T01:46:56;-1.90;99.90
11122;DHT22;5615;49.304;10.576;2023-03-16T01:49:24;-2.00;99.90
11122;DHT22;5615;49.304;10.576;2023-03-16T01:51:54;-2.10;99.90
11122;DHT22;5615;49.304;10.576;2023-03-16T01:54:26;-2.10;99.90
11122;DHT22;5615;49.304;10.576;2023-03-16T01:57:00;-2.00;99.90
11122;DHT22;5615;49.304;10.576;2023-03-16T01:59:31;-2.10;99.90
11122;DHT22;5615;49.304;10.576;2023-03-16T02:02:00;-2.10;99.90
11122;DHT22;5615;49.304;10.576;2023-03-16T02:04:42;-2.10;99.90
11122;DHT22;5615;49.304;10.576;2023-03-16T02:07:10;-2.10;99.90
11122;DHT22;5615;49.304;10.576;2023-03-16T02:09:39;-2.20;99.90
11122;DHT22;5615;49.304;10.576;2023-03-16T02:12:09;-2.10;99.90
11122;DHT22;5615;49.304;10.576;2023-03-16T02:14:42;-2.10;99.90
11122;DHT22;5615;49.304;10.576;2023-03-16T02:17:10;-2.10;99.90
11122;DHT22;5615;49.304;10.576;2023-03-16T02:19:44;-2.00;99.90
11122;DHT22;5615;49.304;10.576;2023-03-16T02:22:13;-2.00;99.90
11122;DHT22;5615;49.304;10.576;2023-03-16T02:24:40;-2.10;99.90
11122;DHT22;5615;49.304;10.576;2023-03-16T02:27:08;-2.10;99.90
11122;DHT22;5615;49.304;10.576;2023-03-16T02:29:59;-2.20;99.90
11122;DHT22;5615;49.304;10.576;2023-03-16T02:32:29;-2.20;99.90
11122;DHT22;5615;49.304;10.576;2023-03-16T02:34:58;-2.20;99.90
11122;DHT22;5615;49.304;10.576;2023-03-16T02:37:26;-2.20;99.90
11122;DHT22;5615;49.304;10.576;2023-03-16T02:39:52;-2.20;99.90
11122;DHT22;5615;49.304;10.576;2023-03-16T02:42:21;-2.30;99.90
11122;DHT22;5615;49.304;10.576;2023-03-16T02:44:51;-2.30;99.90
11122;DHT22;5615;49.304;10.576;2023-03-16T02:47:23;-2.40;99.90
11122;DHT22;5615;49.304;10.576;2023-03-16T02:49:52;-2.40;99.90
11122;DHT22;5615;49.304;10.576;2023-03-16T02:52:18;-2.40;99.90
11122;DHT22;5615;49.304;10.576;2023-03-16T02:54:45;-2.40;99.90
11122;DHT22;5615;49.304;10.576;2023-03-16T02:57:11;-2.40;99.90
11122;DHT22;5615;49.304;10.576;2023-03-16T02:59:38;-2.50;99.90
11122;DHT22;5615;49.304;10.576;2023-03-16T03:02:07;-2.50;99.90
11122;DHT22;5615;49.304;10.576;2023-03-16T03:04:34;-2.50;99.90
11122;DHT22;5615;49.304;10.576;2023-03-16T03:07:00;-2.50;99.90
11122;DHT22;5615;49.304;10.576;2023-03-16T03:09:29;-2.50;99.90
11122;DHT22;5615;49.304;10.576;2023-03-16T03:11:57;-2.50;99.90
11122;DHT22;5615;49.304;10.576;2023-03-16T03:14:23;-2.50;99.90
11122;DHT22;5615;49.304;10.576;2023-03-16T03:16:52;-2.50;99.90
11122;DHT22;5615;49.304;10.576;2023-03-16T03:19:20;-2.50;99.90
11122;DHT22;5615;49.304;10.576;2023-03-16T03:21:47;-2.60;99.90
11122;DHT22;5615;49.304;10.576;2023-03-16T03:24:14;-2.60;99.90
11122;DHT22;5615;49.304;10.576;2023-03-16T03:26:41;-2.60;99.90
11122;DHT22;5615;49.304;10.576;2023-03-16T03:29:09;-2.50;99.90
11122;DHT22;5615;49.304;10.576;2023-03-16T03:31:36;-2.60;99.90
11122;DHT22;5615;49.304;10.576;2023-03-16T03:34:02;-2.60;99.90
11122;DHT22;5615;49.304;10.576;2023-03-16T03:36:32;-2.60;99.90
11122;DHT22;5615;49.304;10.576;2023-03-16T03:38:59;-2.60;99.90
11122;DHT22;5615;49.304;10.576;2023-03-16T03:41:29;-2.60;99.90
11122;DHT22;5615;49.304;10.576;2023-03-16T03:43:55;-2.60;99.90
11122;DHT22;5615;49.304;10.576;2023-03-16T03:46:22;-2.60;99.90
11122;DHT22;5615;49.304;10.576;2023-03-16T03:48:49;-2.60;99.90
11122;DHT22;5615;49.304;10.576;2023-03-16T03:51:15;-2.60;99.90
11122;DHT22;5615;49.304;10.576;2023-03-16T03:53:43;-2.60;99.90
11122;DHT22;5615;49.304;10.576;2023-03-16T03:56:10;-2.50;99.90
11122;DHT22;5615;49.304;10.576;2023-03-16T03:58:36;-2.60;99.90
11122;DHT22;5615;49.304;10.576;2023-03-16T04:01:03;-2.50;99.90
11122;DHT22;5615;49.304;10.576;2023-03-16T04:03:29;-2.60;99.90
11122;DHT22;5615;49.304;10.576;2023-03-16T04:05:56;-2.50;99.90
11122;DHT22;5615;49.304;10.576;2023-03-16T04:08:23;-2.60;99.90
11122;DHT22;5615;49.304;10.576;2023-03-16T04:10:51;-2.60;99.90
11122;DHT22;5615;49.304;10.576;2023-03-16T04:13:17;-2.60;99.90
11122;DHT22;5615;49.304;10.576;2023-03-16T04:15:44;-2.60;99.90
11122;DHT22;5615;49.304;10.576;2023-03-16T04:18:11;-2.60;99.90
11122;DHT22;5615;49.304;10.576;2023-03-16T04:20:38;-2.60;99.90
11122;DHT22;5615;49.304;10.576;2023-03-16T04:23:04;-2.60;99.90
11122;DHT22;5615;49.304;10.576;2023-03-16T04:25:31;-2.60;99.90
11122;DHT22;5615;49.304;10.576;2023-03-16T04:27:59;-2.60;99.90
11122;DHT22;5615;49.304;10.576;2023-03-16T04:30:26;-2.60;99.90
11122;DHT22;5615;49.304;10.576;2023-03-16T04:32:53;-2.60;99.90
11122;DHT22;5615;49.304;10.576;2023-03-16T04:35:19;-2.70;99.90
11122;DHT22;5615;49.304;10.576;2023-03-16T04:37:46;-2.70;99.90
11122;DHT22;5615;49.304;10.576;2023-03-16T04:40:13;-2.70;99.90
11122;DHT22;5615;49.304;10.576;2023-03-16T04:42:44;-2.70;99.90
11122;DHT22;5615;49.304;10.576;2023-03-16T04:45:14;-2.70;99.90
11122;DHT22;5615;49.304;10.576;2023-03-16T04:47:42;-2.70;99.90
11122;DHT22;5615;49.304;10.576;2023-03-16T04:50:10;-2.70;99.90
11122;DHT22;5615;49.304;10.576;2023-03-16T04:52:37;-2.70;99.90
11122;DHT22;5615;49.304;10.576;2023-03-16T04:55:04;-2.60;99.90
11122;DHT22;5615;49.304;10.576;2023-03-16T04:57:31;-2.60;99.90
11122;DHT22;5615;49.304;10.576;2023-03-16T04:59:59;-2.60;99.90
11122;DHT22;5615;49.304;10.576;2023-03-16T05:02:27;-2.60;99.90
11122;DHT22;5615;49.304;10.576;2023-03-16T05:04:54;-2.60;99.90
11122;DHT22;5615;49.304;10.576;2023-03-16T05:07:20;-2.50;99.90
11122;DHT22;5615;49.304;10.576;2023-03-16T05:09:47;-2.50;99.90
11122;DHT22;5615;49.304;10.576;2023-03-16T05:12:13;-2.50;99.90
11122;DHT22;5615;49.304;10.576;2023-03-16T05:14:40;-2.50;99.90
11122;DHT22;5615;49.304;10.576;2023-03-16T05:17:07;-2.50;99.90
11122;DHT22;5615;49.304;10.576;2023-03-16T05:19:35;-2.40;99.90
11122;DHT22;5615;49.304;10.576;2023-03-16T05:22:01;-2.40;99.90
11122;DHT22;5615;49.304;10.576;2023-03-16T05:24:28;-2.40;99.90
11122;DHT22;5615;49.304;10.576;2023-03-16T05:26:54;-2.40;99.90
11122;DHT22;5615;49.304;10.576;2023-03-16T05:29:21;-2.30;99.90
11122;DHT22;5615;49.304;10.576;2023-03-16T05:31:49;-2.30;99.90
11122;DHT22;5615;49.304;10.576;2023-03-16T05:34:15;-2.30;99.90
11122;DHT22;5615;49.304;10.576;2023-03-16T05:36:43;-2.20;99.90
11122;DHT22;5615;49.304;10.576;2023-03-16T05:39:10;-2.20;99.90
11122;DHT22;5615;49.304;10.576;2023-03-16T05:41:37;-2.20;99.90
11122;DHT22;5615;49.304;10.576;2023-03-16T05:44:04;-2.20;99.90
11122;DHT22;5615;49.304;10.576;2023-03-16T05:46:31;-2.20;99.90
11122;DHT22;5615;49.304;10.576;2023-03-16T05:48:58;-2.10;99.90
11122;DHT22;5615;49.304;10.576;2023-03-16T05:51:25;-2.00;99.90
11122;DHT22;5615;49.304;10.576;2023-03-16T05:53:53;-2.00;99.90
11122;DHT22;5615;49.304;10.576;2023-03-16T05:56:22;-1.90;99.90
11122;DHT22;5615;49.304;10.576;2023-03-16T05:58:49;-1.90;99.90
11122;DHT22;5615;49.304;10.576;2023-03-16T06:01:16;-1.90;99.90
11122;DHT22;5615;49.304;10.576;2023-03-16T06:03:42;-1.90;99.90
11122;DHT22;5615;49.304;10.576;2023-03-16T06:06:09;-1.90;99.90
11122;DHT22;5615;49.304;10.576;2023-03-16T06:08:36;-1.90;99.90
11122;DHT22;5615;49.304;10.576;2023-03-16T06:11:04;-1.80;99.90
11122;DHT22;5615;49.304;10.576;2023-03-16T06:13:30;-1.80;99.90
11122;DHT22;5615;49.304;10.576;2023-03-16T06:15:57;-1.80;99.90
11122;DHT22;5615;49.304;10.576;2023-03-16T06:18:23;-1.80;99.90
11122;DHT22;5615;49.304;10.576;2023-03-16T06:20:50;-1.80;99.90
11122;DHT22;5615;49.304;10.576;2023-03-16T06:23:17;-1.80;99.90
11122;DHT22;5615;49.304;10.576;2023-03-16T06:25:46;-1.70;99.90
11122;DHT22;5615;49.304;10.576;2023-03-16T06:28:14;-1.70;99.90
11122;DHT22;5615;49.304;10.576;2023-03-16T06:30:40;-1.70;99.90
11122;DHT22;5615;49.304;10.576;2023-03-16T06:33:07;-1.60;99.90
11122;DHT22;5615;49.304;10.576;2023-03-16T06:35:33;-1.60;99.90
11122;DHT22;5615;49.304;10.576;2023-03-16T06:38:00;-1.50;99.90
11122;DHT22;5615;49.304;10.576;2023-03-16T06:40:27;-1.50;99.90
11122;DHT22;5615;49.304;10.576;2023-03-16T06:42:53;-1.50;99.90
11122;DHT22;5615;49.304;10.576;2023-03-16T06:45:21;-1.30;99.90
11122;DHT22;5615;49.304;10.576;2023-03-16T06:47:50;-1.30;99.90
11122;DHT22;5615;49.304;10.576;2023-03-16T06:50:17;-1.20;99.90
11122;DHT22;5615;49.304;10.576;2023-03-16T06:52:43;-1.10;99.90
11122;DHT22;5615;49.304;10.576;2023-03-16T06:55:10;-1.10;99.90
11122;DHT22;5615;49.304;10.576;2023-03-16T06:57:39;-1.10;99.90
11122;DHT22;5615;49.304;10.576;2023-03-16T07:00:08;-1.00;99.90
11122;DHT22;5615;49.304;10.576;2023-03-16T07:02:36;-1.00;99.90
11122;DHT22;5615;49.304;10.576;2023-03-16T07:05:05;-0.90;99.90
11122;DHT22;5615;49.304;10.576;2023-03-16T07:07:32;-0.80;99.90
11122;DHT22;5615;49.304;10.576;2023-03-16T07:09:58;-0.70;99.90
11122;DHT22;5615;49.304;10.576;2023-03-16T07:12:26;-0.80;99.90
11122;DHT22;5615;49.304;10.576;2023-03-16T07:14:52;-0.70;99.90
11122;DHT22;5615;49.304;10.576;2023-03-16T07:17:19;-0.70;99.90
11122;DHT22;5615;49.304;10.576;2023-03-16T07:19:47;-0.60;99.90
11122;DHT22;5615;49.304;10.576;2023-03-16T07:22:14;-0.50;99.90
11122;DHT22;5615;49.304;10.576;2023-03-16T07:24:40;-0.40;99.90
11122;DHT22;5615;49.304;10.576;2023-03-16T07:27:08;-0.30;99.90
11122;DHT22;5615;49.304;10.576;2023-03-16T07:29:35;-0.20;99.90
11122;DHT22;5615;49.304;10.576;2023-03-16T07:32:01;-0.10;99.90
11122;DHT22;5615;49.304;10.576;2023-03-16T07:34:28;0.10;99.90
11122;DHT22;5615;49.304;10.576;2023-03-16T07:36:56;0.20;99.90
11122;DHT22;5615;49.304;10.576;2023-03-16T07:39:22;0.30;99.90
11122;DHT22;5615;49.304;10.576;2023-03-16T07:41:49;0.40;99.90
11122;DHT22;5615;49.304;10.576;2023-03-16T07:44:16;0.50;99.90
11122;DHT22;5615;49.304;10.576;2023-03-16T07:46:42;0.50;99.90
11122;DHT22;5615;49.304;10.576;2023-03-16T07:49:09;0.60;99.90
11122;DHT22;5615;49.304;10.576;2023-03-16T07:51:36;0.70;99.90
11122;DHT22;5615;49.304;10.576;2023-03-16T07:54:04;0.70;99.90
11122;DHT22;5615;49.304;10.576;2023-03-16T07:56:31;0.70;99.90
11122;DHT22;5615;49.304;10.576;2023-03-16T07:58:57;0.80;99.90
11122;DHT22;5615;49.304;10.576;2023-03-16T08:01:24;0.80;99.90
11122;DHT22;5615;49.304;10.576;2023-03-16T08:03:50;0.90;99.90
11122;DHT22;5615;49.304;10.576;2023-03-16T08:06:18;1.10;99.90
11122;DHT22;5615;49.304;10.576;2023-03-16T08:08:44;1.10;99.90
11122;DHT22;5615;49.304;10.576;2023-03-16T08:11:12;1.30;99.90
11122;DHT22;5615;49.304;10.576;2023-03-16T08:13:39;1.40;99.90
11122;DHT22;5615;49.304;10.576;2023-03-16T08:16:08;1.40;99.90
11122;DHT22;5615;49.304;10.576;2023-03-16T08:18:35;1.60;99.90
11122;DHT22;5615;49.304;10.576;2023-03-16T08:21:02;1.70;99.90
11122;DHT22;5615;49.304;10.576;2023-03-16T08:23:29;1.90;99.90
11122;DHT22;5615;49.304;10.576;2023-03-16T08:25:57;2.00;99.90
11122;DHT22;5615;49.304;10.576;2023-03-16T08:28:26;2.20;99.90
11122;DHT22;5615;49.304;10.576;2023-03-16T08:30:54;2.30;99.90
11122;DHT22;5615;49.304;10.576;2023-03-16T08:33:22;2.50;99.90
11122;DHT22;5615;49.304;10.576;2023-03-16T08:35:50;2.70;99.90
11122;DHT22;5615;49.304;10.576;2023-03-16T08:38:16;2.70;99.90
11122;DHT22;5615;49.304;10.576;2023-03-16T08:40:43;2.90;99.90
11122;DHT22;5615;49.304;10.576;2023-03-16T08:43:13;3.10;99.90
11122;DHT22;5615;49.304;10.576;2023-03-16T08:45:41;3.20;99.90
11122;DHT22;5615;49.304;10.576;2023-03-16T08:48:08;3.30;99.90
11122;DHT22;5615;49.304;10.576;2023-03-16T08:50:38;3.50;99.90
11122;DHT22;5615;49.304;10.576;2023-03-16T08:53:05;3.60;99.90
11122;DHT22;5615;49.304;10.576;2023-03-16T08:55:32;3.80;99.90
11122;DHT22;5615;49.304;10.576;2023-03-16T08:57:58;3.90;99.90
11122;DHT22;5615;49.304;10.576;2023-03-16T09:00:25;4.10;99.90
11122;DHT22;5615;49.304;10.576;2023-03-16T09:02:54;4.20;99.90
11122;DHT22;5615;49.304;10.576;2023-03-16T09:05:21;4.30;99.90
11122;DHT22;5615;49.304;10.576;2023-03-16T09:07:49;4.20;99.90
11122;DHT22;5615;49.304;10.576;2023-03-16T09:10:18;4.10;99.90
11122;DHT22;5615;49.304;10.576;2023-03-16T09:12:47;4.30;99.90
11122;DHT22;5615;49.304;10.576;2023-03-16T09:15:14;4.50;99.90
11122;DHT22;5615;49.304;10.576;2023-03-16T09:17:41;4.70;99.90
11122;DHT22;5615;49.304;10.576;2023-03-16T09:20:12;4.80;99.90
11122;DHT22;5615;49.304;10.576;2023-03-16T09:22:40;5.20;99.90
11122;DHT22;5615;49.304;10.576;2023-03-16T09:25:08;5.30;99.90
11122;DHT22;5615;49.304;10.576;2023-03-16T09:27:35;5.50;99.90
11122;DHT22;5615;49.304;10.576;2023-03-16T09:30:02;5.80;99.90
11122;DHT22;5615;49.304;10.576;2023-03-16T09:32:29;6.00;99.90
11122;DHT22;5615;49.304;10.576;2023-03-16T09:34:57;6.10;99.90
11122;DHT22;5615;49.304;10.576;2023-03-16T09:37:25;6.60;99.90
11122;DHT22;5615;49.304;10.576;2023-03-16T09:39:52;6.60;99.90
11122;DHT22;5615;49.304;10.576;2023-03-16T09:42:25;6.60;99.90
11122;DHT22;5615;49.304;10.576;2023-03-16T09:45:01;5.90;99.90
11122;DHT22;5615;49.304;10.576;2023-03-16T09:47:32;5.70;99.90
11122;DHT22;5615;49.304;10.576;2023-03-16T09:50:03;5.70;99.90
11122;DHT22;5615;49.304;10.576;2023-03-16T09:52:38;6.00;99.90
11122;DHT22;5615;49.304;10.576;2023-03-16T09:55:09;6.50;99.90
11122;DHT22;5615;49.304;10.576;2023-03-16T09:57:40;7.20;99.90
11122;DHT22;5615;49.304;10.576;2023-03-16T10:00:15;7.70;99.90
11122;DHT22;5615;49.304;10.576;2023-03-16T10:02:49;7.90;99.90
11122;DHT22;5615;49.304;10.576;2023-03-16T10:05:20;7.70;99.90
11122;DHT22;5615;49.304;10.576;2023-03-16T10:08:00;7.30;99.90
11122;DHT22;5615;49.304;10.576;2023-03-16T10:10:38;7.70;99.90
11122;DHT22;5615;49.304;10.576;2023-03-16T10:13:15;8.20;99.90
11122;DHT22;5615;49.304;10.576;2023-03-16T10:15:42;8.70;99.90
11122;DHT22;5615;49.304;10.576;2023-03-16T10:18:15;8.90;99.90
11122;DHT22;5615;49.304;10.576;2023-03-16T10:20:42;9.40;99.90
11122;DHT22;5615;49.304;10.576;2023-03-16T10:23:16;9.40;99.90
11122;DHT22;5615;49.304;10.576;2023-03-16T10:25:46;9.10;99.90
11122;DHT22;5615;49.304;10.576;2023-03-16T10:28:15;9.00;99.90
11122;DHT22;5615;49.304;10.576;2023-03-16T10:30:43;9.50;99.90
11122;DHT22;5615;49.304;10.576;2023-03-16T10:33:17;10.30;99.90
11122;DHT22;5615;49.304;10.576;2023-03-16T10:35:47;10.60;99.90
11122;DHT22;5615;49.304;10.576;2023-03-16T10:38:36;10.70;99.90
11122;DHT22;5615;49.304;10.576;2023-03-16T10:41:13;10.80;99.90
11122;DHT22;5615;49.304;10.576;2023-03-16T10:43:45;11.10;99.90
11122;DHT22;5615;49.304;10.576;2023-03-16T10:46:12;11.40;99.90
11122;DHT22;5615;49.304;10.576;2023-03-16T10:48:39;11.50;99.30
11122;DHT22;5615;49.304;10.576;2023-03-16T10:51:10;11.90;97.70
11122;DHT22;5615;49.304;10.576;2023-03-16T10:53:41;12.20;97.30
11122;DHT22;5615;49.304;10.576;2023-03-16T10:56:10;12.50;95.50
11122;DHT22;5615;49.304;10.576;2023-03-16T10:58:40;12.70;95.10
11122;DHT22;5615;49.304;10.576;2023-03-16T11:01:10;13.20;95.10
11122;DHT22;5615;49.304;10.576;2023-03-16T11:03:39;13.10;92.80
11122;DHT22;5615;49.304;10.576;2023-03-16T11:06:16;13.20;91.60
11122;DHT22;5615;49.304;10.576;2023-03-16T11:08:46;13.00;87.40
11122;DHT22;5615;49.304;10.576;2023-03-16T11:11:15;14.10;88.70
11122;DHT22;5615;49.304;10.576;2023-03-16T11:13:44;13.90;83.00
11122;DHT22;5615;49.304;10.576;2023-03-16T11:16:21;14.60;81.80
11122;DHT22;5615;49.304;10.576;2023-03-16T11:18:51;15.30;79.90
11122;DHT22;5615;49.304;10.576;2023-03-16T11:21:24;14.50;76.70
11122;DHT22;5615;49.304;10.576;2023-03-16T11:23:55;14.30;76.80
11122;DHT22;5615;49.304;10.576;2023-03-16T11:26:26;14.30;72.70
11122;DHT22;5615;49.304;10.576;2023-03-16T11:28:59;14.50;71.80
11122;DHT22;5615;49.304;10.576;2023-03-16T11:31:36;15.00;70.70
11122;DHT22;5615;49.304;10.576;2023-03-16T11:34:12;15.60;67.90
11122;DHT22;5615;49.304;10.576;2023-03-16T11:36:46;15.40;66.40
11122;DHT22;5615;49.304;10.576;2023-03-16T11:39:27;15.60;67.20
11122;DHT22;5615;49.304;10.576;2023-03-16T11:42:03;15.90;64.10
11122;DHT22;5615;49.304;10.576;2023-03-16T11:44:36;15.40;60.70
11122;DHT22;5615;49.304;10.576;2023-03-16T11:47:19;15.40;65.80
11122;DHT22;5615;49.304;10.576;2023-03-16T11:49:56;16.20;59.40
11122;DHT22;5615;49.304;10.576;2023-03-16T11:52:36;16.90;56.50
11122;DHT22;5615;49.304;10.576;2023-03-16T11:55:18;17.20;54.50
11122;DHT22;5615;49.304;10.576;2023-03-16T11:57:55;16.70;53.40
11122;DHT22;5615;49.304;10.576;2023-03-16T12:00:30;17.00;51.80
11122;DHT22;5615;49.304;10.576;2023-03-16T12:03:20;16.80;48.90
11122;DHT22;5615;49.304;10.576;2023-03-16T12:05:56;17.80;49.20
11122;DHT22;5615;49.304;10.576;2023-03-16T12:08:43;18.20;49.40
11122;DHT22;5615;49.304;10.576;2023-03-16T12:11:22;18.00;43.90
11122;DHT22;5615;49.304;10.576;2023-03-16T12:13:59;16.90;42.90
11122;DHT22;5615;49.304;10.576;2023-03-16T12:16:31;15.20;41.50
11122;DHT22;5615;49.304;10.576;2023-03-16T12:19:02;15.60;45.20
11122;DHT22;5615;49.304;10.576;2023-03-16T12:21:32;15.50;41.30
11122;DHT22;5615;49.304;10.576;2023-03-16T12:24:01;16.10;42.80
11122;DHT22;5615;49.304;10.576;2023-03-16T12:26:33;15.90;42.80
11122;DHT22;5615;49.304;10.576;2023-03-16T12:29:06;16.40;40.30
11122;DHT22;5615;49.304;10.576;2023-03-16T12:31:38;16.30;39.20
11122;DHT22;5615;49.304;10.576;2023-03-16T12:34:16;15.90;40.30
11122;DHT22;5615;49.304;10.576;2023-03-16T12:37:08;15.70;36.40
11122;DHT22;5615;49.304;10.576;2023-03-16T12:39:54;15.70;39.10
11122;DHT22;5615;49.304;10.576;2023-03-16T12:42:45;17.60;37.20
11122;DHT22;5615;49.304;10.576;2023-03-16T12:45:19;19.20;38.10
11122;DHT22;5615;49.304;10.576;2023-03-16T12:47:57;20.50;38.20
11122;DHT22;5615;49.304;10.576;2023-03-16T12:50:26;20.50;34.20
11122;DHT22;5615;49.304;10.576;2023-03-16T12:52:52;19.40;29.90
11122;DHT22;5615;49.304;10.576;2023-03-16T12:55:23;16.00;29.20
11122;DHT22;5615;49.304;10.576;2023-03-16T12:57:59;16.40;30.80
11122;DHT22;5615;49.304;10.576;2023-03-16T13:00:32;16.60;31.90
11122;DHT22;5615;49.304;10.576;2023-03-16T13:03:00;17.40;35.10
11122;DHT22;5615;49.304;10.576;2023-03-16T13:05:29;19.00;32.90
11122;DHT22;5615;49.304;10.576;2023-03-16T13:08:05;20.80;33.00
11122;DHT22;5615;49.304;10.576;2023-03-16T13:10:33;20.80;30.00
11122;DHT22;5615;49.304;10.576;2023-03-16T13:13:09;21.40;28.60
11122;DHT22;5615;49.304;10.576;2023-03-16T13:15:37;21.70;28.40
11122;DHT22;5615;49.304;10.576;2023-03-16T13:18:22;21.80;27.50
11122;DHT22;5615;49.304;10.576;2023-03-16T13:20:53;21.40;26.70
11122;DHT22;5615;49.304;10.576;2023-03-16T13:23:22;21.20;28.20
11122;DHT22;5615;49.304;10.576;2023-03-16T13:26:04;20.00;26.60
11122;DHT22;5615;49.304;10.576;2023-03-16T13:28:35;22.00;28.00
11122;DHT22;5615;49.304;10.576;2023-03-16T13:31:04;22.70;26.70
11122;DHT22;5615;49.304;10.576;2023-03-16T13:33:33;24.10;25.90
11122;DHT22;5615;49.304;10.576;2023-03-16T13:36:03;23.60;25.10
11122;DHT22;5615;49.304;10.576;2023-03-16T13:38:31;24.40;25.00
11122;DHT22;5615;49.304;10.576;2023-03-16T13:41:03;24.60;24.10
11122;DHT22;5615;49.304;10.576;2023-03-16T13:43:32;24.50;22.80
11122;DHT22;5615;49.304;10.576;2023-03-16T13:46:12;23.90;21.20
11122;DHT22;5615;49.304;10.576;2023-03-16T13:48:39;22.40;22.20
11122;DHT22;5615;49.304;10.576;2023-03-16T13:51:12;24.10;22.80
11122;DHT22;5615;49.304;10.576;2023-03-16T13:53:40;24.20;22.10
11122;DHT22;5615;49.304;10.576;2023-03-16T13:56:12;25.20;21.70
11122;DHT22;5615;49.304;10.576;2023-03-16T13:58:44;25.80;19.20
11122;DHT22;5615;49.304;10.576;2023-03-16T14:01:19;25.40;18.20
11122;DHT22;5615;49.304;10.576;2023-03-16T14:03:49;25.60;19.00
11122;DHT22;5615;49.304;10.576;2023-03-16T14:06:21;26.20;19.50
11122;DHT22;5615;49.304;10.576;2023-03-16T14:08:51;26.40;18.80
11122;DHT22;5615;49.304;10.576;2023-03-16T14:11:18;26.10;17.60
11122;DHT22;5615;49.304;10.576;2023-03-16T14:13:50;25.40;18.00
11122;DHT22;5615;49.304;10.576;2023-03-16T14:16:20;23.60;17.60
11122;DHT22;5615;49.304;10.576;2023-03-16T14:18:51;24.00;17.90
11122;DHT22;5615;49.304;10.576;2023-03-16T14:21:21;24.30;17.60
11122;DHT22;5615;49.304;10.576;2023-03-16T14:23:51;24.60;18.10
11122;DHT22;5615;49.304;10.576;2023-03-16T14:26:18;23.00;18.80
11122;DHT22;5615;49.304;10.576;2023-03-16T14:29:01;22.80;18.10
11122;DHT22;5615;49.304;10.576;2023-03-16T14:31:34;22.40;18.00
11122;DHT22;5615;49.304;10.576;2023-03-16T14:34:02;22.70;17.60
11122;DHT22;5615;49.304;10.576;2023-03-16T14:36:37;23.40;17.90
11122;DHT22;5615;49.304;10.576;2023-03-16T14:39:11;20.80;17.40
11122;DHT22;5615;49.304;10.576;2023-03-16T14:41:39;21.70;18.40
11122;DHT22;5615;49.304;10.576;2023-03-16T14:44:16;22.70;19.40
11122;DHT22;5615;49.304;10.576;2023-03-16T14:46:44;24.30;18.50
11122;DHT22;5615;49.304;10.576;2023-03-16T14:49:18;22.00;19.10
11122;DHT22;5615;49.304;10.576;2023-03-16T14:51:48;23.70;18.60
11122;DHT22;5615;49.304;10.576;2023-03-16T14:54:19;23.70;17.90
11122;DHT22;5615;49.304;10.576;2023-03-16T14:56:47;23.50;17.80
11122;DHT22;5615;49.304;10.576;2023-03-16T14:59:16;22.90;17.20
11122;DHT22;5615;49.304;10.576;2023-03-16T15:01:43;23.20;17.10
11122;DHT22;5615;49.304;10.576;2023-03-16T15:04:12;22.60;17.40
11122;DHT22;5615;49.304;10.576;2023-03-16T15:06:39;20.50;18.40
11122;DHT22;5615;49.304;10.576;2023-03-16T15:09:07;19.40;20.60
11122;DHT22;5615;49.304;10.576;2023-03-16T15:11:40;19.50;20.90
11122;DHT22;5615;49.304;10.576;2023-03-16T15:14:10;19.30;21.20
11122;DHT22;5615;49.304;10.576;2023-03-16T15:17:01;18.50;21.00
11122;DHT22;5615;49.304;10.576;2023-03-16T15:19:27;17.80;21.30
11122;DHT22;5615;49.304;10.576;2023-03-16T15:21:54;17.70;21.90
11122;DHT22;5615;49.304;10.576;2023-03-16T15:24:20;18.00;22.40
11122;DHT22;5615;49.304;10.576;2023-03-16T15:26:47;16.50;23.50
11122;DHT22;5615;49.304;10.576;2023-03-16T15:29:13;15.90;24.90
11122;DHT22;5615;49.304;10.576;2023-03-16T15:31:44;15.30;26.20
11122;DHT22;5615;49.304;10.576;2023-03-16T15:34:12;14.90;26.30
11122;DHT22;5615;49.304;10.576;2023-03-16T15:36:38;14.80;27.30
11122;DHT22;5615;49.304;10.576;2023-03-16T15:39:05;14.90;27.60
11122;DHT22;5615;49.304;10.576;2023-03-16T15:41:33;15.40;28.40
11122;DHT22;5615;49.304;10.576;2023-03-16T15:44:00;15.00;28.30
11122;DHT22;5615;49.304;10.576;2023-03-16T15:46:27;15.50;28.50